Time;durP1;ratioP1;P1;durP2;ratioP2;P2;SDS_P1;SDS_P2;PMS_P1;PMS_P2;Temp;Humidity;BMP_temperature;BMP_pressure;BME280_temperature;BME280_humidity;BME280_pressure;Samples;Min_cycle;Max_cycle;Signal;HPM_P1;HPM_P2
2021/11/11 00:02:05;;;;;;;20.75;9.70;;;;;;;-0.12;58.21;101222.32;1720319;82;21043;-64
2021/11/11 00:04:31;;;;;;;17.62;10.05;;;;;;;-0.14;58.37;101224.31;1727851;82;20979;-64
2021/11/11 00:07:01;;;;;;;18.98;9.00;;;;;;;-0.14;58.49;101220.30;1723516;82;21078;-63
2021/11/11 00:09:28;;;;;;;17.45;9.45;;;;;;;-0.15;58.54;101214.62;1737399;82;21007;-63
2021/11/11 00:11:55;;;;;;;18.57;9.48;;;;;;;-0.15;58.57;101209.27;1735070;82;21116;-63
2021/11/11 00:14:23;;;;;;;19.17;10.20;;;;;;;-0.17;58.70;101209.92;1725024;82;20991;-63
2021/11/11 00:16:50;;;;;;;24.10;9.73;;;;;;;-0.20;58.74;101208.42;1707360;82;21540;-63
2021/11/11 00:19:17;;;;;;;17.57;9.53;;;;;;;-0.21;58.76;101204.07;1723439;82;21039;-63
2021/11/11 00:21:45;;;;;;;20.72;9.15;;;;;;;-0.24;58.82;101206.24;1747131;82;21495;-64
2021/11/11 00:24:12;;;;;;;20.30;9.15;;;;;;;-0.26;58.99;101205.09;1723533;82;21510;-63
2021/11/11 00:26:38;;;;;;;19.90;9.43;;;;;;;-0.29;59.06;101201.41;1739857;82;21518;-63
2021/11/11 00:29:06;;;;;;;17.32;9.10;;;;;;;-0.28;59.17;101194.19;1733513;82;21018;-63
2021/11/11 00:31:32;;;;;;;18.07;9.23;;;;;;;-0.30;59.26;101188.18;1725248;81;21549;-64
2021/11/11 00:33:59;;;;;;;20.88;9.30;;;;;;;-0.33;59.29;101188.02;1730837;81;21011;-64
2021/11/11 00:36:28;;;;;;;18.45;9.68;;;;;;;-0.33;59.38;101188.52;1734316;82;21094;-64
2021/11/11 00:38:54;;;;;;;17.40;9.45;;;;;;;-0.34;59.46;101184.16;1737146;81;21027;-63
2021/11/11 00:41:21;;;;;;;16.62;9.38;;;;;;;-0.33;59.45;101177.81;1732637;82;21015;-63
2021/11/11 00:43:47;;;;;;;16.70;8.78;;;;;;;-0.34;59.51;101172.96;1733945;82;20995;-64
2021/11/11 00:46:13;;;;;;;15.72;9.13;;;;;;;-0.36;59.54;101172.30;1741419;82;21044;-63
2021/11/11 00:48:40;;;;;;;16.77;9.18;;;;;;;-0.36;59.56;101172.80;1724176;81;21019;-63
2021/11/11 00:51:07;;;;;;;;;;;;;;;-0.37;59.69;101163.09;1736436;81;20983;-63
2021/11/11 00:53:34;;;;;;;17.75;8.30;;;;;;;-0.40;59.76;101149.55;1751148;81;20128;-63
2021/11/11 00:56:00;;;;;;;18.17;9.30;;;;;;;-0.44;59.96;101158.91;1731678;81;20987;-63
2021/11/11 00:58:28;;;;;;;16.00;8.90;;;;;;;-0.45;60.06;101156.39;1743941;81;21506;-63
2021/11/11 01:00:55;;;;;;;13.78;8.08;;;;;;;-0.45;60.15;101145.69;1743712;81;20956;-63
2021/11/11 01:03:29;;;;;;;15.98;8.40;;;;;;;-0.43;60.12;101149.89;1744893;81;21027;-64
2021/11/11 01:05:49;;;;;;;16.80;9.43;;;;;;;-0.44;60.26;101150.89;1742856;81;21015;-63
2021/11/11 01:08:17;;;;;;;16.82;8.60;;;;;;;-0.44;60.21;101152.72;1749190;81;21141;-63
2021/11/11 01:10:44;;;;;;;14.70;8.33;;;;;;;-0.44;60.24;101144.20;1749182;81;21086;-63
2021/11/11 01:13:10;;;;;;;16.82;9.58;;;;;;;-0.45;60.36;101143.86;1737225;81;21609;-63
2021/11/11 01:15:38;;;;;;;13.68;8.40;;;;;;;-0.43;60.47;101143.70;1753243;81;20983;-63
2021/11/11 01:18:05;;;;;;;16.27;8.30;;;;;;;-0.45;60.52;101145.19;1740126;81;21035;-64
2021/11/11 01:20:33;;;;;;;16.27;8.45;;;;;;;-0.45;60.51;101141.17;1732140;81;20979;-63
2021/11/11 01:23:00;;;;;;;14.60;8.53;;;;;;;-0.47;60.60;101142.36;1751920;81;21058;-63
2021/11/11 01:25:29;;;;;;;15.70;7.53;;;;;;;-0.47;60.67;101139.69;1739847;81;21565;-63
2021/11/11 01:27:56;;;;;;;13.60;7.40;;;;;;;-0.48;60.70;101138.84;1710633;81;21042;-63
2021/11/11 01:30:24;;;;;;;16.90;8.00;;;;;;;-0.48;60.79;101147.36;1757311;81;20951;-63
2021/11/11 01:32:52;;;;;;;13.28;7.42;;;;;;;-0.50;60.86;101138.99;1751216;81;21058;-63
2021/11/11 01:35:19;;;;;;;15.45;8.23;;;;;;;-0.48;60.80;101131.31;1743264;81;21513;-64
2021/11/11 01:37:45;;;;;;;16.52;7.85;;;;;;;-0.50;60.84;101128.30;1746899;81;21537;-63
2021/11/11 01:40:15;;;;;;;16.23;7.72;;;;;;;-0.52;60.90;101125.45;1756201;81;21006;-63
2021/11/11 01:42:53;;;;;;;13.40;7.70;;;;;;;-0.54;61.15;101123.47;1753957;81;21546;-63
2021/11/11 01:45:35;;;;;;;17.65;7.80;;;;;;;-0.55;61.23;101118.61;1736242;81;21034;-63
2021/11/11 01:48:04;;;;;;;13.58;7.25;;;;;;;-0.57;61.24;101116.59;1747235;81;21597;-63
2021/11/11 01:50:31;;;;;;;15.15;7.65;;;;;;;-0.58;61.31;101105.58;1745018;82;20979;-63
2021/11/11 01:52:58;;;;;;;11.35;7.22;;;;;;;-0.59;61.28;101105.23;1726436;82;21087;-64
2021/11/11 01:55:25;;;;;;;14.43;7.15;;;;;;;-0.60;61.33;101098.20;1710674;82;20975;-63
2021/11/11 01:57:53;;;;;;;14.10;7.12;;;;;;;-0.61;61.53;101097.89;1721155;82;21625;-63
2021/11/11 02:00:24;;;;;;;15.95;7.65;;;;;;;-0.61;61.69;101097.89;1695781;82;21443;-64
2021/11/11 02:02:57;;;;;;;12.65;6.53;;;;;;;-0.60;61.61;101094.19;1746875;82;21044;-63
2021/11/11 02:05:26;;;;;;;14.43;7.30;;;;;;;-0.62;61.61;101089.52;1692380;82;21424;-63
2021/11/11 02:07:53;;;;;;;17.00;7.65;;;;;;;-0.63;61.57;101087.00;1734186;82;21448;-63
2021/11/11 02:10:21;;;;;;;14.83;7.67;;;;;;;-0.65;61.70;101081.00;1692358;83;20955;-63
2021/11/11 02:12:49;;;;;;;15.45;7.35;;;;;;;-0.69;61.92;101076.48;1718311;82;21058;-63
2021/11/11 02:15:15;;;;;;;19.77;8.25;;;;;;;-0.68;61.99;101072.81;1734917;82;20999;-64
2021/11/11 02:17:44;;;;;;;16.70;8.18;;;;;;;-0.69;61.92;101078.31;1719154;82;21098;-64
2021/11/11 02:20:16;;;;;;;18.07;8.13;;;;;;;-0.70;61.79;101071.28;1724828;82;21414;-63
2021/11/11 02:22:47;;;;;;;17.42;7.50;;;;;;;-0.72;61.80;101066.12;1714720;82;21043;-63
2021/11/11 02:25:17;;;;;;;14.47;7.70;;;;;;;-0.74;61.97;101063.26;1697562;82;20940;-63
2021/11/11 02:27:44;;;;;;;16.93;7.92;;;;;;;-0.76;62.22;101062.11;1722521;82;21637;-64
2021/11/11 02:30:13;;;;;;;14.23;7.33;;;;;;;-0.75;62.36;101059.78;1699614;82;21513;-63
2021/11/11 02:32:40;;;;;;;15.93;7.80;;;;;;;-0.75;62.41;101057.10;1731635;82;21019;-63
2021/11/11 02:35:09;;;;;;;18.82;7.92;;;;;;;-0.74;62.43;101050.73;1678565;84;21038;-63
2021/11/11 02:37:36;;;;;;;14.33;7.53;;;;;;;-0.75;62.57;101045.07;1667212;84;21066;-64
2021/11/11 02:40:08;;;;;;;12.18;7.00;;;;;;;-0.74;62.54;101049.39;1690889;84;21083;-63
2021/11/11 02:42:37;;;;;;;12.03;6.15;;;;;;;-0.72;62.43;101050.58;1685126;84;21485;-63
2021/11/11 02:45:07;;;;;;;14.15;6.70;;;;;;;-0.73;62.34;101049.73;1690629;84;21600;-63
2021/11/11 02:47:35;;;;;;;12.68;6.25;;;;;;;-0.73;62.35;101047.56;1693872;84;21043;-63
2021/11/11 02:50:04;;;;;;;12.15;6.47;;;;;;;-0.75;62.29;101049.08;1684553;84;21043;-63
2021/11/11 02:52:30;;;;;;;11.83;6.58;;;;;;;-0.76;62.30;101030.52;1688523;84;21947;-63
2021/11/11 02:54:57;;;;;;;10.30;5.75;;;;;;;-0.79;62.35;101031.70;1694744;84;21042;-63
2021/11/11 02:57:33;;;;;;;12.25;6.00;;;;;;;-0.78;62.29;101031.20;1698523;84;21027;-63
2021/11/11 03:00:19;;;;;;;10.23;5.58;;;;;;;-0.80;62.33;101026.00;1656618;84;21027;-63
2021/11/11 03:02:46;;;;;;;11.28;5.67;;;;;;;-0.81;62.43;101026.16;1696876;84;21102;-63
2021/11/11 03:05:18;;;;;;;11.18;6.10;;;;;;;-0.83;62.43;101016.98;1683599;84;21099;-62
2021/11/11 03:07:44;;;;;;;10.68;5.30;;;;;;;-0.84;62.40;101021.15;1684533;84;21031;-63
2021/11/11 03:10:15;;;;;;;9.25;5.42;;;;;;;-0.85;62.43;101018.97;1672018;84;21035;-63
2021/11/11 03:12:42;;;;;;;12.90;5.67;;;;;;;-0.85;62.50;101014.16;1683074;84;21091;-63
2021/11/11 03:15:09;;;;;;;9.78;5.50;;;;;;;-0.86;62.51;101007.97;1696293;84;21066;-63
2021/11/11 03:17:37;;;;;;;;;;;;;;;-0.86;62.56;101000.44;1700486;84;21098;-63
2021/11/11 03:20:07;;;;;;;9.78;4.87;;;;;;;-0.86;62.56;100998.61;1691294;84;20130;-63
2021/11/11 03:22:34;;;;;;;10.53;5.65;;;;;;;-0.90;62.64;100983.06;1698305;84;21078;-63
2021/11/11 03:25:00;;;;;;;10.25;5.47;;;;;;;-0.90;62.74;100983.91;1691309;84;21582;-63
2021/11/11 03:27:30;;;;;;;10.18;5.87;;;;;;;-0.89;62.58;100979.40;1693529;84;21035;-63
2021/11/11 03:29:57;;;;;;;11.43;5.30;;;;;;;-0.89;62.81;100980.23;1672619;84;21518;-63
2021/11/11 03:32:23;;;;;;;9.58;5.40;;;;;;;-0.88;62.83;100966.34;1648104;84;21075;-63
2021/11/11 03:34:50;;;;;;;;;;;;;;;-0.88;62.83;100966.34;1681076;84;21003;-63
2021/11/11 03:37:16;;;;;;;10.72;5.42;;;;;;;-0.84;62.89;100970.35;1686647;84;20144;-63
2021/11/11 03:39:43;;;;;;;9.40;5.05;;;;;;;-0.87;62.95;100962.17;1689307;84;21632;-63
2021/11/11 03:42:12;;;;;;;8.78;5.10;;;;;;;-0.87;62.89;100956.83;1664726;84;21075;-63
2021/11/11 03:44:40;;;;;;;11.73;5.83;;;;;;;-0.86;62.99;100953.16;1671594;84;21042;-64
2021/11/11 03:47:07;;;;;;;10.18;5.95;;;;;;;-0.84;63.04;100953.81;1672996;84;21086;-64
2021/11/11 03:49:35;;;;;;;10.23;5.60;;;;;;;-0.81;63.04;100948.63;1675800;84;21538;-63
2021/11/11 03:52:03;;;;;;;10.43;5.55;;;;;;;-0.80;62.98;100951.14;1653277;86;21578;-63
2021/11/11 03:54:30;;;;;;;12.88;5.65;;;;;;;-0.79;63.01;100945.30;1674718;84;21075;-63
2021/11/11 03:56:58;;;;;;;11.30;6.53;;;;;;;-0.76;62.95;100945.80;1643871;86;21127;-63
2021/11/11 03:59:25;;;;;;;12.82;6.22;;;;;;;-0.75;62.93;100943.46;1692015;84;21082;-63
2021/11/11 04:01:52;;;;;;;12.53;6.03;;;;;;;-0.74;62.86;100939.76;1688478;84;21677;-63
2021/11/11 04:04:18;;;;;;;11.78;6.90;;;;;;;-0.73;62.80;100944.11;1692202;84;21476;-63
2021/11/11 04:06:46;;;;;;;12.98;6.50;;;;;;;-0.73;62.79;100945.95;1692517;84;21126;-63
2021/11/11 04:09:13;;;;;;;13.68;6.70;;;;;;;-0.70;62.74;100945.11;1728606;82;21102;-63
2021/11/11 04:11:39;;;;;;;;;;;;;;;-0.71;62.72;100944.77;1733482;82;21507;-63
2021/11/11 04:14:06;;;;;;;12.25;6.28;;;;;;;-0.68;62.72;100934.25;1745228;82;20135;-64
2021/11/11 04:16:33;;;;;;;12.58;6.40;;;;;;;-0.73;62.88;100949.45;1743373;82;21063;-64
2021/11/11 04:19:00;;;;;;;12.45;6.08;;;;;;;-0.74;62.85;100933.08;1730054;82;21487;-63
2021/11/11 04:21:27;;;;;;;11.35;5.95;;;;;;;-0.74;62.88;100928.22;1737247;82;21590;-67
2021/11/11 04:23:55;;;;;;;12.15;5.97;;;;;;;-0.75;62.82;100919.39;1726079;82;21010;-69
2021/11/11 04:26:25;;;;;;;12.43;6.25;;;;;;;-0.77;62.83;100913.36;1706003;82;21015;-62
2021/11/11 04:31:26;;;;;;;10.00;5.78;;;;;;;-0.79;62.76;100904.69;1737107;82;21470;-61
2021/11/11 04:33:56;;;;;;;9.68;5.78;;;;;;;-0.79;62.71;100902.52;1742091;82;21027;-62
2021/11/11 04:50:06;;;;;;;11.03;6.72;;;;;;;-0.81;62.71;100901.34;1747375;82;21549;-62
2021/11/11 05:04:19;;;;;;;10.93;6.12;;;;;;;-0.85;62.92;100893.32;1817284;79;22982;-62
2021/11/11 05:06:49;;;;;;;12.63;5.92;;;;;;;-0.90;62.97;100898.86;1777162;80;21070;-63
2021/11/11 05:09:15;;;;;;;13.55;6.03;;;;;;;-0.90;62.95;100906.38;1751502;82;20988;-62
2021/11/11 05:11:43;;;;;;;12.25;6.50;;;;;;;-0.90;62.95;100915.73;1731395;81;21660;-62
2021/11/11 05:14:10;;;;;;;10.28;5.83;;;;;;;-0.93;63.03;100913.41;1761378;81;21517;-63
2021/11/11 05:16:36;;;;;;;10.75;6.50;;;;;;;-0.92;63.05;100911.57;1761114;80;21607;-62
2021/11/11 05:19:03;;;;;;;;;;;;;;;-0.94;63.13;100906.38;1754147;81;21522;-62
2021/11/11 05:21:30;;;;;;;10.13;5.70;;;;;;;-0.96;63.23;100907.06;1725480;82;20403;-63
2021/11/11 05:23:57;;;;;;;;;;;;;;;-1.02;63.42;100895.69;1728150;83;21767;-62
2021/11/11 05:26:24;;;;;;;12.20;6.08;;;;;;;-1.00;63.50;100901.72;1725456;82;20723;-63
2021/11/11 05:28:53;;;;;;;13.43;6.08;;;;;;;-1.07;63.69;100896.72;1725389;83;21039;-62
2021/11/11 05:31:20;;;;;;;8.88;5.70;;;;;;;-1.07;63.73;100894.88;1736502;80;21029;-62
2021/11/11 05:33:47;;;;;;;12.75;6.35;;;;;;;-1.06;63.75;100891.68;1760882;81;21029;-62
2021/11/11 05:36:14;;;;;;;12.55;5.65;;;;;;;-1.04;63.75;100890.53;1760352;80;21010;-62
2021/11/11 05:38:40;;;;;;;8.70;5.55;;;;;;;-1.03;63.74;100878.01;1735911;81;21061;-63
2021/11/11 05:41:07;;;;;;;10.40;6.35;;;;;;;-1.03;63.74;100878.01;1759592;80;20971;-62
2021/11/11 05:43:35;;;;;;;16.57;6.72;;;;;;;-1.00;63.84;100880.34;1759803;81;21069;-63
2021/11/11 05:46:02;;;;;;;;;;;;;;;-0.99;63.90;100877.97;1763762;81;21533;-63
2021/11/11 05:48:29;;;;;;;11.85;5.78;;;;;;;-0.96;63.92;100887.02;1731037;81;20141;-62
2021/11/11 05:50:57;;;;;;;12.68;6.20;;;;;;;-0.97;63.99;100889.34;1761438;81;20967;-63
2021/11/11 05:53:23;;;;;;;11.48;7.00;;;;;;;-0.95;63.97;100890.00;1761307;80;21640;-63
2021/11/11 05:55:51;;;;;;;11.35;6.47;;;;;;;-0.90;63.94;100891.67;1761474;81;21517;-63
2021/11/11 05:58:18;;;;;;;12.53;6.72;;;;;;;-0.86;63.89;100880.14;1753423;80;21885;-63
2021/11/11 06:00:45;;;;;;;15.30;7.05;;;;;;;-0.78;63.87;100884.14;1753191;81;20961;-62
2021/11/11 06:03:13;;;;;;;16.42;7.65;;;;;;;-0.72;63.74;100886.96;1753960;80;21072;-63
2021/11/11 06:05:41;;;;;;;12.73;6.47;;;;;;;-0.65;63.57;100881.27;1758269;81;21029;-63
2021/11/11 06:08:10;;;;;;;11.18;6.33;;;;;;;-0.56;63.42;100884.23;1758458;80;21551;-63
2021/11/11 06:10:36;;;;;;;12.80;6.47;;;;;;;-0.48;63.21;100883.38;1759430;81;21465;-63
2021/11/11 06:13:04;;;;;;;14.45;6.40;;;;;;;-0.40;63.07;100877.16;1756387;80;21136;-63
2021/11/11 06:15:31;;;;;;;12.85;6.42;;;;;;;-0.31;62.95;100870.25;1749771;82;21032;-63
2021/11/11 06:17:59;;;;;;;10.85;6.08;;;;;;;-0.19;62.70;100865.36;1753638;82;21066;-62
2021/11/11 06:20:31;;;;;;;13.83;6.90;;;;;;;-0.08;62.49;100856.94;1755631;82;21022;-62
2021/11/11 06:22:55;;;;;;;16.62;6.90;;;;;;;0.06;62.15;100856.69;1754841;81;21031;-62
2021/11/11 06:25:22;;;;;;;13.68;6.75;;;;;;;0.17;61.90;100862.98;1726378;82;21023;-63
2021/11/11 06:27:51;;;;;;;11.40;6.55;;;;;;;0.28;61.51;100852.70;1755033;81;21074;-63
2021/11/11 06:30:17;;;;;;;13.25;6.95;;;;;;;0.39;61.30;100854.94;1755737;82;21045;-62
2021/11/11 06:32:44;;;;;;;11.10;6.67;;;;;;;0.56;60.99;100862.88;1755542;81;21101;-62
2021/11/11 06:35:12;;;;;;;11.43;6.30;;;;;;;0.73;60.77;100866.58;1755431;82;21038;-62
2021/11/11 06:37:40;;;;;;;11.83;6.62;;;;;;;0.93;60.40;100862.36;1755478;81;21581;-62
2021/11/11 06:40:08;;;;;;;9.70;5.92;;;;;;;1.16;60.11;100855.61;1755838;82;21466;-63
2021/11/11 06:42:34;;;;;;;9.75;6.20;;;;;;;1.40;59.36;100848.62;1755460;81;21545;-63
2021/11/11 06:45:02;;;;;;;10.68;6.60;;;;;;;1.73;58.20;100856.29;1755885;82;21398;-63
2021/11/11 06:47:28;;;;;;;10.15;5.97;;;;;;;1.73;58.20;100856.29;1755426;81;21069;-62
2021/11/11 06:49:56;;;;;;;9.33;5.40;;;;;;;1.95;57.93;100854.80;1755566;82;20974;-63
2021/11/11 06:52:23;;;;;;;9.18;6.12;;;;;;;2.24;57.40;100850.36;1755687;81;21002;-63
2021/11/11 06:54:49;;;;;;;;;;;;;;;2.53;57.03;100850.75;1758191;82;21394;-63
2021/11/11 06:57:15;;;;;;;9.90;5.72;;;;;;;2.78;56.39;100852.02;1755560;81;20420;-63
2021/11/11 06:59:43;;;;;;;12.28;7.10;;;;;;;2.90;55.84;100852.66;1754758;82;21556;-63
2021/11/11 07:02:10;;;;;;;10.72;6.30;;;;;;;3.20;55.45;100864.03;1725889;82;21620;-63
2021/11/11 07:04:36;;;;;;;12.45;6.78;;;;;;;3.43;54.24;100861.09;1751176;82;21621;-63
2021/11/11 07:07:04;;;;;;;11.57;7.05;;;;;;;3.63;53.84;100857.98;1750447;81;21129;-63
2021/11/11 07:09:31;;;;;;;9.38;5.80;;;;;;;3.80;52.50;100839.09;1750335;82;21110;-63
2021/11/11 07:11:59;;;;;;;10.03;6.12;;;;;;;3.97;52.11;100838.22;1750657;81;21038;-63
2021/11/11 07:14:25;;;;;;;12.23;7.37;;;;;;;4.11;51.21;100838.58;1750745;82;21097;-63
2021/11/11 07:16:52;;;;;;;11.05;6.50;;;;;;;4.26;50.54;100837.89;1749793;81;21086;-64
2021/11/11 07:19:18;;;;;;;8.45;5.65;;;;;;;4.41;50.10;100833.16;1726115;82;21082;-64
2021/11/11 07:21:46;;;;;;;10.93;5.87;;;;;;;4.60;49.72;100836.93;1716014;83;21150;-64
2021/11/11 07:24:13;;;;;;;12.50;6.37;;;;;;;4.79;48.80;100832.55;1739940;82;21070;-64
2021/11/11 07:26:39;;;;;;;8.03;5.12;;;;;;;4.94;48.33;100836.72;1744997;81;21062;-64
2021/11/11 07:29:05;;;;;;;8.30;4.60;;;;;;;5.16;47.88;100833.27;1749498;82;21038;-64
2021/11/11 07:31:31;;;;;;;10.35;5.10;;;;;;;5.36;46.85;100837.27;1747576;81;21066;-63
2021/11/11 07:33:59;;;;;;;6.97;4.65;;;;;;;5.44;46.31;100826.25;1740678;82;21572;-64
2021/11/11 07:36:27;;;;;;;9.50;5.25;;;;;;;5.57;46.09;100833.48;1737463;82;21079;-64
2021/11/11 07:38:54;;;;;;;10.80;5.72;;;;;;;5.74;45.91;100821.19;1745249;82;21105;-64
2021/11/11 07:41:20;;;;;;;;;;;;;;;5.88;45.39;100827.67;1748820;82;21000;-64
2021/11/11 07:43:46;;;;;;;10.00;5.83;;;;;;;5.99;45.01;100823.47;1707528;84;20118;-64
2021/11/11 07:46:13;;;;;;;11.65;6.22;;;;;;;6.03;45.09;100811.70;1746247;82;21026;-64
2021/11/11 07:48:39;;;;;;;9.25;5.80;;;;;;;6.17;44.48;100810.06;1744999;82;21102;-64
2021/11/11 07:51:06;;;;;;;11.05;6.85;;;;;;;6.27;43.48;100797.44;1745051;82;21078;-64
2021/11/11 07:53:34;;;;;;;10.18;5.65;;;;;;;6.17;43.29;100799.25;1741942;82;21042;-63
2021/11/11 07:56:02;;;;;;;10.43;6.08;;;;;;;6.16;43.38;100781.39;1745321;82;21043;-64
2021/11/11 07:58:29;;;;;;;8.65;5.22;;;;;;;6.09;42.96;100795.47;1745527;82;21102;-64
2021/11/11 08:00:56;;;;;;;9.68;5.72;;;;;;;6.09;43.51;100804.94;1745431;82;21031;-64
2021/11/11 08:03:23;;;;;;;9.63;5.40;;;;;;;6.19;43.30;100812.56;1746968;82;21039;-64
2021/11/11 08:05:49;;;;;;;;;;;;;;;6.27;43.19;100802.30;1750080;82;21071;-65
2021/11/11 08:08:16;;;;;;;9.88;5.83;;;;;;;6.37;43.17;100814.02;1744438;82;20423;-63
2021/11/11 08:10:42;;;;;;;10.95;5.45;;;;;;;6.38;42.91;100811.07;1750355;82;21057;-64
2021/11/11 08:13:09;;;;;;;11.03;5.65;;;;;;;6.47;42.89;100816.54;1745167;82;21055;-64
2021/11/11 08:15:37;;;;;;;9.13;5.80;;;;;;;6.59;42.99;100820.70;1745839;82;21051;-63
2021/11/11 08:18:04;;;;;;;9.70;5.28;;;;;;;6.80;42.55;100823.58;1745955;82;21027;-63
2021/11/11 08:20:30;;;;;;;10.70;5.67;;;;;;;6.94;42.55;100825.12;1745921;82;21008;-63
2021/11/11 08:22:56;;;;;;;9.58;5.33;;;;;;;7.18;42.61;100825.62;1745864;82;21134;-63
2021/11/11 08:25:23;;;;;;;8.53;5.08;;;;;;;7.42;42.19;100819.33;1746068;82;21462;-63
2021/11/11 08:27:50;;;;;;;11.68;5.10;;;;;;;7.67;41.64;100823.32;1745578;82;21565;-63
2021/11/11 08:30:17;;;;;;;13.13;6.55;;;;;;;7.85;41.05;100817.05;1745996;82;21505;-64
2021/11/11 08:32:44;;;;;;;10.70;6.05;;;;;;;7.94;40.21;100794.81;1745490;82;21031;-63
2021/11/11 08:35:11;;;;;;;11.45;6.35;;;;;;;8.11;40.34;100794.20;1745436;82;21074;-63
2021/11/11 08:37:40;;;;;;;9.85;5.85;;;;;;;8.24;39.59;100794.83;1745372;82;21141;-63
2021/11/11 08:40:08;;;;;;;13.78;8.78;;;;;;;8.34;39.28;100787.52;1745638;82;21097;-63
2021/11/11 08:42:35;;;;;;;10.63;6.10;;;;;;;8.46;39.17;100787.86;1745380;82;21142;-63
2021/11/11 08:45:02;;;;;;;8.13;5.53;;;;;;;8.64;38.94;100785.59;1745750;82;21093;-63
2021/11/11 08:47:29;;;;;;;9.80;5.58;;;;;;;8.84;38.69;100774.39;1745505;82;21609;-63
2021/11/11 08:49:58;;;;;;;7.45;5.55;;;;;;;9.00;38.22;100776.39;1745313;82;21058;-63
2021/11/11 08:52:24;;;;;;;10.88;5.45;;;;;;;9.15;37.88;100772.67;1745574;82;21035;-63
2021/11/11 08:54:54;;;;;;;10.03;5.25;;;;;;;9.25;37.75;100766.63;1745788;82;21026;-64
2021/11/11 08:57:20;;;;;;;11.30;5.53;;;;;;;9.26;37.09;100756.89;1745484;82;21110;-63
2021/11/11 08:59:52;;;;;;;8.78;5.25;;;;;;;9.38;37.46;100749.56;1745669;82;21051;-63
2021/11/11 09:02:16;;;;;;;9.83;6.05;;;;;;;9.60;37.05;100746.20;1745272;82;21059;-64
2021/11/11 09:04:43;;;;;;;15.55;8.93;;;;;;;9.73;36.54;100737.75;1746950;82;21536;-63
2021/11/11 09:07:09;;;;;;;14.78;7.92;;;;;;;9.77;36.05;100732.13;1747410;81;21571;-63
2021/11/11 09:09:36;;;;;;;13.00;6.22;;;;;;;9.78;36.31;100716.91;1747669;82;21084;-63
2021/11/11 09:12:03;;;;;;;8.40;4.80;;;;;;;9.84;35.63;100707.80;1747451;81;21555;-63
2021/11/11 09:14:31;;;;;;;13.05;5.75;;;;;;;9.77;35.41;100694.89;1747459;82;20992;-63
2021/11/11 09:16:58;;;;;;;;;;;;;;;9.67;35.57;100693.88;1750099;81;21096;-63
2021/11/11 09:19:25;;;;;;;11.43;5.80;;;;;;;9.77;35.67;100678.58;1747417;82;20106;-63
2021/11/11 09:21:52;;;;;;;13.30;6.40;;;;;;;9.68;35.62;100682.73;1747308;81;21128;-63
2021/11/11 09:24:18;;;;;;;;;;;;;;;9.75;35.42;100682.58;1749713;82;21119;-63
2021/11/11 09:26:44;;;;;;;8.78;4.58;;;;;;;9.76;35.42;100671.48;1747562;81;20130;-64
2021/11/11 09:29:11;;;;;;;8.40;5.30;;;;;;;9.82;35.76;100671.85;1747515;82;21674;-64
2021/11/11 09:31:38;;;;;;;11.53;5.05;;;;;;;9.98;35.39;100673.80;1747392;81;21598;-63
2021/11/11 09:34:06;;;;;;;9.15;5.35;;;;;;;10.08;35.28;100662.79;1747429;82;21064;-64
2021/11/11 09:36:34;;;;;;;8.73;5.20;;;;;;;10.26;35.63;100656.61;1747208;81;21128;-63
2021/11/11 09:39:02;;;;;;;10.05;4.58;;;;;;;10.37;34.32;100645.35;1747319;82;21056;-63
2021/11/11 09:41:28;;;;;;;9.90;4.97;;;;;;;10.19;34.18;100644.23;1747475;81;21135;-63
2021/11/11 09:43:55;;;;;;;8.45;4.62;;;;;;;9.87;34.58;100633.88;1747757;82;21567;-63
2021/11/11 09:46:22;;;;;;;10.18;5.58;;;;;;;9.72;35.30;100630.89;1747844;81;21523;-64
2021/11/11 09:48:48;;;;;;;10.28;5.30;;;;;;;9.83;35.38;100633.25;1747638;82;21028;-63
2021/11/11 09:51:18;;;;;;;9.30;5.00;;;;;;;10.05;35.36;100629.28;1747938;81;21022;-63
2021/11/11 09:59:03;;;;;;;8.08;4.92;;;;;;;10.20;34.27;100609.96;1747767;82;21048;-63
2021/11/11 10:01:31;;;;;;;8.08;4.53;;;;;;;10.16;34.79;100605.28;1747787;81;21053;-63
2021/11/11 10:03:57;;;;;;;7.53;4.28;;;;;;;10.21;34.66;100598.02;1751014;81;21035;-63
2021/11/11 10:06:27;;;;;;;7.03;3.87;;;;;;;10.14;34.38;100565.21;1760786;80;21594;-63
2021/11/11 10:08:56;;;;;;;7.37;4.00;;;;;;;9.87;34.44;100563.70;1760953;81;21031;-63
2021/11/11 10:11:35;;;;;;;7.22;4.33;;;;;;;9.62;34.85;100575.51;1760747;80;21012;-63
2021/11/11 10:14:06;;;;;;;6.92;4.22;;;;;;;9.47;35.30;100585.03;1760520;81;21074;-63
2021/11/11 10:16:35;;;;;;;9.28;4.65;;;;;;;9.64;35.39;100573.35;1760892;80;21048;-63
2021/11/11 10:19:04;;;;;;;9.00;5.37;;;;;;;9.73;35.25;100565.10;1760915;81;21103;-63
2021/11/11 10:21:55;;;;;;;9.90;4.90;;;;;;;9.75;35.18;100562.95;1761035;80;21024;-63
2021/11/11 10:24:25;;;;;;;7.42;4.78;;;;;;;9.78;35.19;100555.13;1754585;81;21063;-63
2021/11/11 10:27:08;;;;;;;8.75;5.78;;;;;;;9.78;35.05;100552.94;1725177;82;21055;-63
2021/11/11 10:29:50;;;;;;;7.28;4.47;;;;;;;9.81;35.11;100561.42;1724905;83;21049;-63
2021/11/11 10:32:31;;;;;;;7.28;4.72;;;;;;;9.75;34.98;100551.54;1724717;83;21645;-63
2021/11/11 10:35:17;;;;;;;7.97;4.75;;;;;;;9.65;35.30;100532.34;1713597;83;21033;-63
2021/11/11 10:37:53;;;;;;;9.00;4.78;;;;;;;9.60;35.56;100537.69;1725027;82;21065;-63
2021/11/11 10:40:23;;;;;;;12.65;6.15;;;;;;;9.64;35.64;100533.41;1725059;83;21015;-63
2021/11/11 10:42:54;;;;;;;27.13;14.43;;;;;;;9.74;35.89;100549.09;1724998;82;21108;-63
2021/11/11 10:45:23;;;;;;;63.25;32.33;;;;;;;9.82;36.17;100556.28;1724733;83;21025;-63
2021/11/11 10:47:52;;;;;;;44.50;24.23;;;;;;;9.85;36.02;100550.34;1725052;82;21576;-63
2021/11/11 10:50:22;;;;;;;29.00;16.95;;;;;;;9.85;35.89;100548.16;1724813;83;21041;-63
2021/11/11 10:52:55;;;;;;;33.48;16.37;;;;;;;9.67;36.01;100547.86;1724705;82;21108;-63
2021/11/11 10:55:33;;;;;;;14.10;8.43;;;;;;;9.53;36.40;100549.81;1724671;83;21678;-63
2021/11/11 10:58:11;;;;;;;12.68;7.83;;;;;;;9.41;36.41;100548.50;1724712;83;21050;-61
2021/11/11 11:00:57;;;;;;;30.55;18.95;;;;;;;9.38;36.83;100538.13;1724628;83;21116;-62
2021/11/11 11:03:27;;;;;;;23.62;13.95;;;;;;;9.39;37.11;100530.24;1724156;83;21035;-62
2021/11/11 11:05:58;;;;;;;30.08;14.85;;;;;;;9.38;37.17;100525.37;1712387;83;21066;-62
2021/11/11 11:08:34;;;;;;;73.42;37.83;;;;;;;9.35;36.90;100521.76;1711549;84;21115;-63
2021/11/11 11:11:15;;;;;;;57.45;29.80;;;;;;;9.27;37.11;100520.81;1711608;84;21079;-61
2021/11/11 11:13:48;;;;;;;32.93;16.30;;;;;;;9.13;37.18;100514.04;1711908;84;21598;-63
2021/11/11 11:16:20;;;;;;;46.83;21.07;;;;;;;8.98;37.41;100509.14;1711670;84;21016;-62
2021/11/11 11:18:58;;;;;;;26.68;14.43;;;;;;;8.90;37.70;100504.09;1710522;83;21015;-62
2021/11/11 11:21:33;;;;;;;44.33;21.87;;;;;;;8.82;37.77;100506.38;1747726;81;21116;-64
2021/11/11 11:24:02;;;;;;;27.65;12.73;;;;;;;8.72;38.26;100495.29;1746715;81;21063;-62
2021/11/11 11:26:32;;;;;;;36.15;17.77;;;;;;;8.68;38.60;100499.02;1747622;81;21103;-62
2021/11/11 11:29:14;;;;;;;36.25;17.90;;;;;;;8.65;38.75;100493.25;1747553;82;21574;-62
2021/11/11 11:31:50;;;;;;;17.82;9.88;;;;;;;8.63;38.71;100492.15;1747530;81;21136;-62
2021/11/11 11:34:22;;;;;;;21.87;12.43;;;;;;;8.58;38.88;100495.27;1747842;82;21083;-62
2021/11/11 11:36:56;;;;;;;48.63;23.90;;;;;;;8.50;39.12;100486.45;1747407;81;21579;-62
2021/11/11 11:39:35;;;;;;;36.73;18.07;;;;;;;8.52;39.48;100477.25;1747157;82;21080;-61
2021/11/11 11:42:08;;;;;;;68.10;32.50;;;;;;;8.54;39.50;100481.92;1747444;81;21572;-62
2021/11/11 11:44:54;;;;;;;30.45;15.18;;;;;;;8.53;39.50;100488.41;1747084;82;21132;-62
2021/11/11 11:47:32;;;;;;;28.62;15.68;;;;;;;8.50;39.58;100481.02;1747252;81;21652;-62
2021/11/11 11:50:07;;;;;;;14.93;8.28;;;;;;;8.49;39.73;100467.19;1747467;82;21021;-62
2021/11/11 11:52:38;;;;;;;14.18;8.83;;;;;;;8.47;39.71;100463.04;1747503;81;21610;-62
2021/11/11 12:00:32;;;;;;;10.05;5.95;;;;;;;8.44;40.24;100449.95;1747393;82;21083;-63
2021/11/11 12:40:31;;;;;;;8.55;5.70;;;;;;;8.56;41.17;100429.05;1760589;81;21036;-62
2021/11/11 12:43:00;;;;;;;9.28;5.72;;;;;;;8.54;41.47;100422.22;1760777;80;21060;-62
2021/11/11 12:45:35;;;;;;;9.88;5.83;;;;;;;8.55;41.55;100421.96;1757887;81;21513;-61
2021/11/11 12:48:19;;;;;;;8.20;5.42;;;;;;;8.56;41.40;100422.27;1760758;80;21020;-62